Time;durP1;ratioP1;P1;durP2;ratioP2;P2;SDS_P1;SDS_P2;PMS_P1;PMS_P2;Temp;Humidity;BMP_temperature;BMP_pressure;BME280_temperature;BME280_humidity;BME280_pressure;Samples;Min_cycle;Max_cycle;Signal;HPM_P1;HPM_P2
2022/04/19 00:02:25;;;;;;;5.27;3.80;;;;;;;;;;5010855;28;20735;-57
2022/04/19 00:04:51;;;;;;;6.00;3.53;;;;;;;;;;5015329;28;20245;-57
2022/04/19 00:07:17;;;;;;;4.20;3.53;;;;;;;;;;5014831;28;20853;-58
2022/04/19 00:09:43;;;;;;;5.27;3.63;;;;;;;;;;5015327;28;20272;-58
2022/04/19 00:12:09;;;;;;;4.13;3.53;;;;;;;;;;5013842;28;20196;-58
2022/04/19 00:14:35;;;;;;;5.07;4.27;;;;;;;;;;5011698;28;20208;-58
2022/04/19 00:17:01;;;;;;;4.67;3.43;;;;;;;;;;5013122;28;20189;-57
2022/04/19 00:19:28;;;;;;;4.10;3.30;;;;;;;;;;5015832;28;20190;-58
2022/04/19 00:21:54;;;;;;;4.83;3.60;;;;;;;;;;5012493;28;20197;-58
2022/04/19 00:24:20;;;;;;;4.53;3.40;;;;;;;;;;5013992;28;20196;-58
2022/04/19 00:26:46;;;;;;;5.10;3.10;;;;;;;;;;5014511;28;20272;-57
2022/04/19 00:29:12;;;;;;;4.60;3.50;;;;;;;;;;5009268;28;20332;-58
2022/04/19 00:31:38;;;;;;;3.93;3.03;;;;;;;;;;5014938;28;20204;-57
2022/04/19 00:34:04;;;;;;;4.30;3.17;;;;;;;;;;5010004;28;20217;-58
2022/04/19 00:36:30;;;;;;;4.30;3.20;;;;;;;;;;5013611;28;20190;-58
2022/04/19 00:38:56;;;;;;;3.97;3.30;;;;;;;;;;5011569;28;20188;-58
2022/04/19 00:41:22;;;;;;;3.23;2.83;;;;;;;;;;5013348;28;20190;-58
2022/04/19 00:43:48;;;;;;;3.20;2.90;;;;;;;;;;5009696;28;20194;-58
2022/04/19 00:46:14;;;;;;;4.93;3.00;;;;;;;;;;5014131;28;20190;-57
2022/04/19 00:48:42;;;;;;;3.30;3.00;;;;;;;;;;5014892;28;20204;-58
2022/04/19 00:51:08;;;;;;;4.53;2.93;;;;;;;;;;5012716;28;20579;-58
2022/04/19 00:53:34;;;;;;;4.47;3.30;;;;;;;;;;5013260;28;20300;-58
2022/04/19 00:56:00;;;;;;;3.43;2.87;;;;;;;;;;5015803;28;20188;-58
2022/04/19 00:58:26;;;;;;;3.10;2.80;;;;;;;;;;5015950;28;20745;-57
2022/04/19 01:00:52;;;;;;;3.60;2.60;;;;;;;;;;5013706;28;20683;-57
2022/04/19 01:03:18;;;;;;;2.90;2.57;;;;;;;;;;5011518;28;20201;-58
2022/04/19 01:05:48;;;;;;;2.90;2.60;;;;;;;;;;5013316;28;20200;-58
2022/04/19 01:08:14;;;;;;;3.67;2.80;;;;;;;;;;5012704;28;20227;-57
2022/04/19 01:10:41;;;;;;;3.90;2.77;;;;;;;;;;5011497;28;20201;-58
2022/04/19 01:13:19;;;;;;;4.30;3.10;;;;;;;;;;5011725;28;20204;-58
2022/04/19 01:15:50;;;;;;;3.80;2.83;;;;;;;;;;5014371;28;20197;-57
2022/04/19 01:18:24;;;;;;;2.90;2.70;;;;;;;;;;5012307;28;20601;-58
2022/04/19 01:20:50;;;;;;;3.40;3.00;;;;;;;;;;5014415;28;20613;-58
2022/04/19 01:23:19;;;;;;;3.63;2.70;;;;;;;;;;5013525;28;20227;-58
2022/04/19 01:25:45;;;;;;;2.83;2.60;;;;;;;;;;5007946;28;20533;-58
2022/04/19 01:28:11;;;;;;;3.40;2.50;;;;;;;;;;5014742;28;20225;-58
2022/04/19 01:30:37;;;;;;;2.60;2.40;;;;;;;;;;5015722;28;20291;-58
2022/04/19 01:33:03;;;;;;;3.30;2.60;;;;;;;;;;5017966;28;20190;-58
2022/04/19 01:35:29;;;;;;;4.50;2.90;;;;;;;;;;5017274;28;20189;-58
2022/04/19 01:37:55;;;;;;;8.90;2.37;;;;;;;;;;5016096;28;20216;-58
2022/04/19 01:40:21;;;;;;;2.80;2.50;;;;;;;;;;5015985;28;20249;-58
2022/04/19 01:42:53;;;;;;;3.93;2.80;;;;;;;;;;5016015;28;20214;-57
2022/04/19 01:45:20;;;;;;;3.60;3.00;;;;;;;;;;5013080;28;20193;-58
2022/04/19 01:47:46;;;;;;;2.70;2.50;;;;;;;;;;5015728;28;20251;-57
2022/04/19 01:50:12;;;;;;;4.07;2.90;;;;;;;;;;5016528;28;20197;-57
2022/04/19 01:52:39;;;;;;;3.33;2.50;;;;;;;;;;5014892;28;20296;-57
2022/04/19 01:55:05;;;;;;;4.83;2.43;;;;;;;;;;5014858;28;20695;-58
2022/04/19 01:57:31;;;;;;;3.57;2.83;;;;;;;;;;5017845;28;20197;-58
2022/04/19 01:59:57;;;;;;;3.00;2.70;;;;;;;;;;5018357;28;20311;-57
2022/04/19 02:02:23;;;;;;;3.00;2.70;;;;;;;;;;5016491;28;20189;-58
2022/04/19 02:04:53;;;;;;;3.47;2.63;;;;;;;;;;5015838;28;20189;-59
2022/04/19 02:07:19;;;;;;;3.10;2.40;;;;;;;;;;5016382;28;20540;-58
2022/04/19 02:09:44;;;;;;;2.77;2.57;;;;;;;;;;5014928;28;20217;-58
2022/04/19 02:12:10;;;;;;;2.60;2.40;;;;;;;;;;5015343;28;20209;-57
2022/04/19 02:14:41;;;;;;;4.60;2.63;;;;;;;;;;5015415;28;20213;-58
2022/04/19 02:17:11;;;;;;;3.27;2.93;;;;;;;;;;5015935;28;20635;-57
2022/04/19 02:19:37;;;;;;;4.03;2.53;;;;;;;;;;5016113;28;20281;-58
2022/04/19 02:22:06;;;;;;;4.57;2.60;;;;;;;;;;5015297;28;20220;-58
2022/04/19 02:24:32;;;;;;;3.47;2.63;;;;;;;;;;5015289;28;20202;-57
2022/04/19 02:26:58;;;;;;;3.00;2.70;;;;;;;;;;5015952;28;20196;-57
2022/04/19 02:29:25;;;;;;;4.93;2.57;;;;;;;;;;5014692;28;20232;-57
2022/04/19 02:31:51;;;;;;;4.90;2.73;;;;;;;;;;5015776;28;20197;-58
2022/04/19 02:34:18;;;;;;;3.20;2.37;;;;;;;;;;5016073;28;20225;-57
2022/04/19 02:36:44;;;;;;;2.90;2.67;;;;;;;;;;5016334;28;20186;-57
2022/04/19 02:39:10;;;;;;;3.00;2.53;;;;;;;;;;5015192;28;20200;-58
2022/04/19 02:41:36;;;;;;;2.93;2.67;;;;;;;;;;5015030;28;20189;-58
2022/04/19 02:44:03;;;;;;;2.90;2.70;;;;;;;;;;5013298;28;20194;-58
2022/04/19 02:46:29;;;;;;;2.80;2.50;;;;;;;;;;5014037;28;20201;-58
2022/04/19 02:48:57;;;;;;;3.00;2.60;;;;;;;;;;5014947;28;20202;-58
2022/04/19 02:51:24;;;;;;;4.00;2.80;;;;;;;;;;5014972;28;20232;-58
2022/04/19 02:53:49;;;;;;;3.10;2.80;;;;;;;;;;5014144;28;20626;-57
2022/04/19 02:56:16;;;;;;;3.13;2.83;;;;;;;;;;5013050;28;20200;-58
2022/04/19 02:58:44;;;;;;;4.20;2.70;;;;;;;;;;5015879;28;20232;-59
2022/04/19 03:01:10;;;;;;;3.93;2.63;;;;;;;;;;5014034;28;20546;-57
2022/04/19 03:03:36;;;;;;;3.40;3.10;;;;;;;;;;5014045;28;20197;-58
2022/04/19 03:06:03;;;;;;;3.20;2.90;;;;;;;;;;5015306;28;20203;-58
2022/04/19 03:08:29;;;;;;;3.03;2.73;;;;;;;;;;5015204;28;20193;-58
2022/04/19 03:10:55;;;;;;;3.10;2.60;;;;;;;;;;5014237;28;20583;-58
2022/04/19 03:13:21;;;;;;;3.33;3.03;;;;;;;;;;5015250;28;21324;-57
2022/04/19 03:15:47;;;;;;;4.00;2.97;;;;;;;;;;5015003;28;20630;-58
2022/04/19 03:18:14;;;;;;;4.13;3.00;;;;;;;;;;5014296;28;20194;-58
2022/04/19 03:20:43;;;;;;;3.60;3.20;;;;;;;;;;5014197;28;20735;-58
2022/04/19 03:28:40;;;;;;;3.60;3.30;;;;;;;;;;5014695;28;20683;-58
2022/04/19 03:31:07;;;;;;;3.33;3.03;;;;;;;;;;5012542;28;20225;-58
2022/04/19 03:33:33;;;;;;;4.77;3.07;;;;;;;;;;5015003;28;20217;-58
2022/04/19 03:35:59;;;;;;;3.57;2.97;;;;;;;;;;5016547;28;20669;-57
2022/04/19 03:38:25;;;;;;;3.27;2.93;;;;;;;;;;5015994;28;20185;-58
2022/04/19 03:40:51;;;;;;;4.50;2.93;;;;;;;;;;5012223;28;20197;-58
2022/04/19 03:43:17;;;;;;;3.23;2.93;;;;;;;;;;5013711;28;20509;-58
2022/04/19 03:45:43;;;;;;;3.47;3.00;;;;;;;;;;5013436;28;20218;-58
2022/04/19 03:48:10;;;;;;;3.10;2.80;;;;;;;;;;5013058;28;20198;-58
2022/04/19 03:50:36;;;;;;;3.47;2.73;;;;;;;;;;5018690;28;20189;-58
2022/04/19 03:53:02;;;;;;;4.00;3.03;;;;;;;;;;5013040;28;20190;-58
2022/04/19 03:55:28;;;;;;;3.27;2.93;;;;;;;;;;5013340;28;20223;-58
2022/04/19 03:57:54;;;;;;;3.93;2.60;;;;;;;;;;5013752;28;20192;-59
2022/04/19 04:00:21;;;;;;;5.77;3.00;;;;;;;;;;5007805;28;20293;-58
2022/04/19 04:02:47;;;;;;;3.40;2.80;;;;;;;;;;5015324;28;20770;-58
2022/04/19 04:05:13;;;;;;;3.53;3.20;;;;;;;;;;5013113;28;20281;-57
2022/04/19 04:07:39;;;;;;;3.17;2.87;;;;;;;;;;5015209;28;20230;-56
2022/04/19 04:10:05;;;;;;;3.70;2.87;;;;;;;;;;5014255;28;20666;-58
2022/04/19 04:12:31;;;;;;;4.10;2.73;;;;;;;;;;5013875;28;20189;-57
2022/04/19 04:14:57;;;;;;;4.00;3.10;;;;;;;;;;5014506;28;20221;-57
2022/04/19 04:17:23;;;;;;;5.20;3.40;;;;;;;;;;5014626;28;20295;-57
2022/04/19 04:19:49;;;;;;;3.67;3.13;;;;;;;;;;5012339;28;20276;-58
2022/04/19 04:22:15;;;;;;;3.40;3.00;;;;;;;;;;5011499;28;20748;-57
2022/04/19 04:24:41;;;;;;;5.57;3.10;;;;;;;;;;5014742;28;20193;-57
2022/04/19 04:27:07;;;;;;;3.87;3.10;;;;;;;;;;5014065;28;20192;-57
2022/04/19 04:29:33;;;;;;;4.00;3.00;;;;;;;;;;5011826;28;20243;-57
2022/04/19 04:31:59;;;;;;;3.47;3.13;;;;;;;;;;5012025;28;20228;-57
2022/04/19 04:34:25;;;;;;;5.87;3.40;;;;;;;;;;5012229;28;20363;-57
2022/04/19 04:36:51;;;;;;;4.97;3.37;;;;;;;;;;5007812;28;20241;-57
2022/04/19 04:39:17;;;;;;;3.13;2.83;;;;;;;;;;5011325;28;20205;-57
2022/04/19 04:41:45;;;;;;;4.20;3.50;;;;;;;;;;5012896;28;20184;-57
2022/04/19 04:44:11;;;;;;;5.53;3.53;;;;;;;;;;5012716;28;20258;-57
2022/04/19 04:49:36;;;;;;;3.40;3.07;;;;;;;;;;5014174;28;20190;-58
2022/04/19 04:52:09;;;;;;;5.87;3.40;;;;;;;;;;5011542;28;20210;-58
2022/04/19 04:54:35;;;;;;;3.60;3.00;;;;;;;;;;5013652;28;20219;-57
2022/04/19 04:57:02;;;;;;;4.97;3.40;;;;;;;;;;5012359;28;20269;-58
2022/04/19 04:59:29;;;;;;;5.17;3.50;;;;;;;;;;5012566;28;20872;-57
2022/04/19 05:01:55;;;;;;;4.60;3.60;;;;;;;;;;5015723;28;20193;-58
2022/04/19 05:04:21;;;;;;;5.70;3.83;;;;;;;;;;5017108;28;20701;-57
2022/04/19 05:06:47;;;;;;;5.63;3.77;;;;;;;;;;5016829;28;20296;-57
2022/04/19 05:09:13;;;;;;;4.03;3.40;;;;;;;;;;5016914;28;20190;-58
2022/04/19 05:11:39;;;;;;;3.80;3.50;;;;;;;;;;5017724;28;20200;-57
2022/04/19 05:14:07;;;;;;;4.47;3.53;;;;;;;;;;5017897;28;20218;-58
2022/04/19 05:16:33;;;;;;;6.30;4.30;;;;;;;;;;5017960;28;20189;-58
2022/04/19 05:18:59;;;;;;;3.93;3.53;;;;;;;;;;5015614;28;20202;-58
2022/04/19 05:21:25;;;;;;;3.80;3.33;;;;;;;;;;5016838;28;20218;-58
2022/04/19 05:23:51;;;;;;;4.90;3.33;;;;;;;;;;5018280;28;20686;-58
2022/04/19 05:26:17;;;;;;;4.53;3.17;;;;;;;;;;5018735;28;20189;-58
2022/04/19 05:28:43;;;;;;;4.93;3.47;;;;;;;;;;5015895;28;20232;-58
2022/04/19 05:31:09;;;;;;;4.93;3.07;;;;;;;;;;5015188;28;20742;-58
2022/04/19 05:33:35;;;;;;;6.30;3.20;;;;;;;;;;5015020;28;20213;-57
2022/04/19 05:36:01;;;;;;;6.97;3.60;;;;;;;;;;5014898;28;20320;-58
2022/04/19 05:38:27;;;;;;;5.13;3.70;;;;;;;;;;5016532;28;20185;-57
2022/04/19 05:40:53;;;;;;;5.03;3.20;;;;;;;;;;5015750;28;20197;-58
2022/04/19 05:43:19;;;;;;;4.50;3.40;;;;;;;;;;5018044;28;20690;-58
2022/04/19 05:45:46;;;;;;;7.10;3.50;;;;;;;;;;5015160;28;20646;-58
2022/04/19 05:48:12;;;;;;;5.43;3.50;;;;;;;;;;5011756;28;20222;-57
2022/04/19 05:50:39;;;;;;;5.90;3.80;;;;;;;;;;5017449;28;20653;-57
2022/04/19 05:53:05;;;;;;;5.80;3.37;;;;;;;;;;5014588;28;20335;-58
2022/04/19 05:55:32;;;;;;;4.60;3.40;;;;;;;;;;5014849;28;20220;-58
2022/04/19 05:57:58;;;;;;;3.60;3.30;;;;;;;;;;5016682;28;20188;-57
2022/04/19 06:00:24;;;;;;;4.40;3.50;;;;;;;;;;5016577;28;20342;-58
2022/04/19 06:05:35;;;;;;;5.80;3.60;;;;;;;;;;5015309;28;20285;-58
2022/04/19 06:08:01;;;;;;;9.07;3.53;;;;;;;;;;5019293;28;20292;-57
2022/04/19 06:10:27;;;;;;;6.40;3.50;;;;;;;;;;5017659;28;20253;-57
2022/04/19 06:12:53;;;;;;;4.87;3.20;;;;;;;;;;5016682;28;20197;-58
2022/04/19 06:15:19;;;;;;;4.93;3.47;;;;;;;;;;5015098;28;20219;-57
2022/04/19 06:17:45;;;;;;;5.80;3.60;;;;;;;;;;5012816;28;20196;-58
2022/04/19 06:20:12;;;;;;;5.90;3.30;;;;;;;;;;5016036;28;20727;-58
2022/04/19 06:22:38;;;;;;;5.63;3.37;;;;;;;;;;5014537;28;20190;-57
2022/04/19 06:25:05;;;;;;;5.00;3.73;;;;;;;;;;5009791;28;20224;-58
2022/04/19 06:27:31;;;;;;;5.13;3.50;;;;;;;;;;5013295;28;20681;-57
2022/04/19 06:29:58;;;;;;;3.60;3.30;;;;;;;;;;5013592;28;20273;-58
2022/04/19 06:32:23;;;;;;;4.00;3.53;;;;;;;;;;5012581;28;20696;-57
2022/04/19 06:34:50;;;;;;;5.47;3.80;;;;;;;;;;5012761;28;20227;-57
2022/04/19 06:37:16;;;;;;;6.03;3.40;;;;;;;;;;5015349;28;20191;-58
2022/04/19 06:39:42;;;;;;;3.90;3.27;;;;;;;;;;5014352;28;20185;-57
2022/04/19 06:42:09;;;;;;;5.17;3.60;;;;;;;;;;5017032;28;20178;-57
2022/04/19 06:44:35;;;;;;;6.73;3.50;;;;;;;;;;5013412;28;20211;-58
2022/04/19 06:47:01;;;;;;;3.77;3.20;;;;;;;;;;5013675;28;20198;-58
2022/04/19 06:49:27;;;;;;;6.33;3.30;;;;;;;;;;5015276;28;20184;-58
2022/04/19 06:51:53;;;;;;;3.60;2.83;;;;;;;;;;5012398;28;20248;-57
2022/04/19 06:54:19;;;;;;;3.73;3.07;;;;;;;;;;5015946;28;20212;-58
2022/04/19 06:56:45;;;;;;;4.67;2.93;;;;;;;;;;5012956;28;20193;-58
2022/04/19 06:59:11;;;;;;;4.20;2.80;;;;;;;;;;5016182;28;20182;-57
2022/04/19 07:01:40;;;;;;;3.43;3.03;;;;;;;;;;5015320;28;20548;-57
2022/04/19 07:04:06;;;;;;;3.90;3.03;;;;;;;;;;5014905;28;20328;-58
2022/04/19 07:06:32;;;;;;;4.00;2.73;;;;;;;;;;5012270;28;20234;-58
2022/04/19 07:08:58;;;;;;;3.13;2.80;;;;;;;;;;5016041;28;20196;-58
2022/04/19 07:11:24;;;;;;;3.60;3.00;;;;;;;;;;5014291;28;20189;-57
2022/04/19 07:13:50;;;;;;;3.40;2.70;;;;;;;;;;5014308;28;20217;-57
2022/04/19 07:16:16;;;;;;;3.77;2.70;;;;;;;;;;5010325;28;20454;-58
2022/04/19 07:18:42;;;;;;;6.00;3.00;;;;;;;;;;5014485;28;20723;-58
2022/04/19 07:26:37;;;;;;;5.87;3.10;;;;;;;;;;5013471;28;20288;-57
2022/04/19 07:29:03;;;;;;;5.43;3.07;;;;;;;;;;5013793;28;20225;-57
2022/04/19 07:31:29;;;;;;;3.20;2.50;;;;;;;;;;5015096;28;20319;-57
2022/04/19 07:33:55;;;;;;;6.13;3.10;;;;;;;;;;5013336;28;20217;-57
2022/04/19 07:36:21;;;;;;;4.77;3.10;;;;;;;;;;5014455;28;20185;-57
2022/04/19 07:38:47;;;;;;;4.33;2.87;;;;;;;;;;5013969;28;20186;-57
2022/04/19 07:41:13;;;;;;;4.20;2.93;;;;;;;;;;5012638;28;20680;-57
2022/04/19 07:43:41;;;;;;;3.67;3.00;;;;;;;;;;5013154;28;20748;-58
2022/04/19 07:46:10;;;;;;;4.50;3.40;;;;;;;;;;5014569;28;20194;-57
2022/04/19 07:48:36;;;;;;;5.17;3.00;;;;;;;;;;5015869;28;20189;-57
2022/04/19 07:51:02;;;;;;;5.23;2.80;;;;;;;;;;5010974;28;20189;-57
2022/04/19 07:53:28;;;;;;;4.53;3.00;;;;;;;;;;5014564;28;20203;-57
2022/04/19 07:55:57;;;;;;;6.97;3.33;;;;;;;;;;5014867;28;20194;-58
2022/04/19 07:58:23;;;;;;;3.27;2.90;;;;;;;;;;5013557;28;20763;-58
2022/04/19 08:00:49;;;;;;;3.90;3.20;;;;;;;;;;5015012;28;20185;-57
2022/04/19 08:03:15;;;;;;;4.23;3.00;;;;;;;;;;5005243;28;20275;-57
2022/04/19 08:05:41;;;;;;;3.43;2.90;;;;;;;;;;5003497;28;21012;-58
2022/04/19 08:08:07;;;;;;;3.97;3.20;;;;;;;;;;5011201;28;20218;-58
2022/04/19 08:10:33;;;;;;;3.43;3.00;;;;;;;;;;5012746;28;20674;-58
2022/04/19 08:13:00;;;;;;;4.37;3.30;;;;;;;;;;5014144;28;20307;-58
2022/04/19 08:15:26;;;;;;;3.77;3.17;;;;;;;;;;5012149;28;20222;-58
2022/04/19 08:17:52;;;;;;;4.50;4.10;;;;;;;;;;5013887;28;20200;-58
2022/04/19 08:20:18;;;;;;;4.13;3.73;;;;;;;;;;5012157;28;20216;-57
2022/04/19 08:22:44;;;;;;;5.43;3.30;;;;;;;;;;5013076;28;20186;-58
2022/04/19 08:25:10;;;;;;;4.23;3.77;;;;;;;;;;5007612;28;20628;-58
2022/04/19 08:27:45;;;;;;;4.33;3.70;;;;;;;;;;5012964;28;20200;-58
2022/04/19 08:30:11;;;;;;;5.77;3.90;;;;;;;;;;5012779;28;20298;-58
2022/04/19 08:32:37;;;;;;;4.40;3.97;;;;;;;;;;5012946;28;20864;-59
2022/04/19 08:35:04;;;;;;;5.40;3.92;;;;;;;;;;5011337;28;20252;-58
2022/04/19 08:37:34;;;;;;;4.18;3.78;;;;;;;;;;5013433;28;20575;-58
2022/04/19 08:40:00;;;;;;;4.18;3.45;;;;;;;;;;5015576;28;20186;-58
2022/04/19 08:42:29;;;;;;;5.63;4.03;;;;;;;;;;5015960;28;20186;-59
2022/04/19 08:44:55;;;;;;;5.35;4.40;;;;;;;;;;5016714;28;20561;-58
2022/04/19 08:47:22;;;;;;;4.32;3.80;;;;;;;;;;5014018;28;20182;-58
2022/04/19 08:49:48;;;;;;;4.85;3.80;;;;;;;;;;5017411;28;20651;-58
2022/04/19 08:52:14;;;;;;;5.50;4.20;;;;;;;;;;5021739;28;20216;-58
2022/04/19 08:57:31;;;;;;;6.22;4.90;;;;;;;;;;5016879;28;20612;-57
2022/04/19 08:59:57;;;;;;;4.20;3.80;;;;;;;;;;5015621;28;20178;-57
2022/04/19 09:02:24;;;;;;;4.53;4.13;;;;;;;;;;5017444;28;20189;-57
2022/04/19 09:04:52;;;;;;;4.65;4.22;;;;;;;;;;5010733;28;20205;-58
2022/04/19 09:07:18;;;;;;;6.15;4.78;;;;;;;;;;5017052;28;20250;-58
2022/04/19 09:09:44;;;;;;;4.20;3.80;;;;;;;;;;5016112;28;20189;-57
2022/04/19 09:12:11;;;;;;;4.05;3.40;;;;;;;;;;5020899;28;20211;-58
2022/04/19 09:14:37;;;;;;;6.85;4.20;;;;;;;;;;5017536;28;20242;-57
2022/04/19 09:17:04;;;;;;;4.40;4.00;;;;;;;;;;5020033;28;20181;-58
2022/04/19 09:19:30;;;;;;;4.38;3.97;;;;;;;;;;5016011;28;20885;-57
2022/04/19 09:21:56;;;;;;;4.13;3.72;;;;;;;;;;5017128;28;20643;-57
2022/04/19 09:24:23;;;;;;;4.63;4.22;;;;;;;;;;5017839;28;20197;-58
2022/04/19 09:26:49;;;;;;;4.00;3.70;;;;;;;;;;5014456;28;20533;-57
2022/04/19 09:29:21;;;;;;;4.13;3.30;;;;;;;;;;5017807;28;20220;-58
2022/04/19 09:31:50;;;;;;;3.90;3.60;;;;;;;;;;5015446;28;20244;-58
2022/04/19 09:34:28;;;;;;;5.63;3.70;;;;;;;;;;5015409;28;20267;-58
2022/04/19 09:37:07;;;;;;;4.18;3.83;;;;;;;;;;5018244;28;20650;-58
2022/04/19 09:39:35;;;;;;;3.88;3.58;;;;;;;;;;5015889;28;20274;-58
2022/04/19 09:42:14;;;;;;;5.13;4.15;;;;;;;;;;5014899;28;20745;-58
2022/04/19 09:44:43;;;;;;;4.35;3.90;;;;;;;;;;5015777;28;20651;-58
2022/04/19 09:47:10;;;;;;;4.63;4.22;;;;;;;;;;5017718;28;20194;-58
2022/04/19 09:49:49;;;;;;;4.18;3.80;;;;;;;;;;5014305;28;20216;-58
2022/04/19 09:52:21;;;;;;;4.32;3.92;;;;;;;;;;5016543;28;20189;-58
2022/04/19 09:55:00;;;;;;;5.07;4.38;;;;;;;;;;5017842;28;20221;-58
2022/04/19 09:57:26;;;;;;;4.60;4.13;;;;;;;;;;5010486;28;20189;-59
2022/04/19 09:59:52;;;;;;;6.28;4.43;;;;;;;;;;5017190;28;20208;-58
2022/04/19 10:10:32;;;;;;;4.60;3.72;;;;;;;;;;5016219;28;20686;-58
2022/04/19 10:12:58;;;;;;;4.90;3.83;;;;;;;;;;5017686;28;20197;-58
2022/04/19 10:15:24;;;;;;;4.63;3.92;;;;;;;;;;5014401;28;20213;-58
2022/04/19 10:17:50;;;;;;;7.82;3.63;;;;;;;;;;5014292;28;20578;-58
2022/04/19 10:20:16;;;;;;;4.72;3.45;;;;;;;;;;5015290;28;20185;-58
2022/04/19 10:22:46;;;;;;;5.78;4.57;;;;;;;;;;5013783;28;20181;-59
2022/04/19 10:25:15;;;;;;;4.55;3.95;;;;;;;;;;5015559;28;20200;-58
2022/04/19 10:27:42;;;;;;;3.72;3.25;;;;;;;;;;5014896;28;20236;-58
2022/04/19 10:30:08;;;;;;;5.50;3.35;;;;;;;;;;5013753;28;20792;-58
2022/04/19 10:32:34;;;;;;;3.83;3.38;;;;;;;;;;5012984;28;20527;-58
2022/04/19 10:35:01;;;;;;;4.18;3.85;;;;;;;;;;5014528;28;20229;-58
2022/04/19 10:37:27;;;;;;;5.63;3.50;;;;;;;;;;5015208;28;20686;-58
2022/04/19 10:39:59;;;;;;;6.60;3.50;;;;;;;;;;5012938;28;20212;-58
2022/04/19 10:42:36;;;;;;;3.75;3.45;;;;;;;;;;5006896;28;20186;-58
2022/04/19 10:45:05;;;;;;;5.50;3.72;;;;;;;;;;5013402;28;20181;-59
2022/04/19 10:47:31;;;;;;;4.15;3.45;;;;;;;;;;5015874;28;20190;-59
2022/04/19 10:50:01;;;;;;;3.58;3.28;;;;;;;;;;5014676;28;20192;-58
2022/04/19 10:52:39;;;;;;;4.53;3.40;;;;;;;;;;5014317;28;20283;-59
2022/04/19 10:55:23;;;;;;;4.45;3.25;;;;;;;;;;5015347;28;20213;-59
2022/04/19 11:00:45;;;;;;;4.05;3.63;;;;;;;;;;5015212;28;20196;-58
2022/04/19 11:03:12;;;;;;;3.75;3.33;;;;;;;;;;5013251;28;20189;-59
2022/04/19 11:05:41;;;;;;;5.50;3.63;;;;;;;;;;5014423;28;20178;-58
2022/04/19 11:08:25;;;;;;;3.83;3.47;;;;;;;;;;5014051;28;20287;-59
2022/04/19 11:10:54;;;;;;;3.70;3.40;;;;;;;;;;5014125;28;20283;-60
2022/04/19 11:13:20;;;;;;;4.25;3.10;;;;;;;;;;5011889;28;20391;-59
2022/04/19 11:16:02;;;;;;;3.58;3.25;;;;;;;;;;5013484;28;20994;-59
2022/04/19 11:18:34;;;;;;;3.97;2.88;;;;;;;;;;5019260;28;20205;-58
2022/04/19 11:21:02;;;;;;;3.58;2.70;;;;;;;;;;5014290;28;20243;-57
2022/04/19 11:23:29;;;;;;;3.28;3.03;;;;;;;;;;5014775;28;20244;-57
2022/04/19 11:25:55;;;;;;;3.35;2.90;;;;;;;;;;5014043;28;20185;-58
2022/04/19 11:28:21;;;;;;;3.53;3.20;;;;;;;;;;5017061;28;20626;-58
2022/04/19 11:30:50;;;;;;;4.78;3.28;;;;;;;;;;5010709;28;20304;-59
2022/04/19 11:33:23;;;;;;;3.88;3.35;;;;;;;;;;5015386;28;20189;-57
2022/04/19 11:36:02;;;;;;;3.40;3.10;;;;;;;;;;5014383;28;20327;-57
2022/04/19 11:38:28;;;;;;;4.63;2.92;;;;;;;;;;5014036;28;20189;-58
2022/04/19 11:49:09;;;;;;;3.50;3.20;;;;;;;;;;5016340;28;20258;-58
2022/04/19 11:51:36;;;;;;;3.58;3.20;;;;;;;;;;5013355;28;20201;-58
2022/04/19 11:54:05;;;;;;;4.05;3.10;;;;;;;;;;5015622;28;20236;-59
2022/04/19 11:56:31;;;;;;;8.65;2.60;;;;;;;;;;5014672;28;20739;-58
2022/04/19 11:59:00;;;;;;;3.45;3.17;;;;;;;;;;5015279;28;20192;-58
2022/04/19 12:01:26;;;;;;;6.85;2.85;;;;;;;;;;5013763;28;20197;-58
2022/04/19 12:03:53;;;;;;;3.40;3.08;;;;;;;;;;5013364;28;20197;-58
2022/04/19 12:06:19;;;;;;;3.15;2.78;;;;;;;;;;5012566;28;20710;-58
2022/04/19 12:08:46;;;;;;;6.25;3.15;;;;;;;;;;5008716;28;20600;-58
2022/04/19 12:11:14;;;;;;;2.45;2.25;;;;;;;;;;5012649;28;20189;-58
2022/04/19 12:13:41;;;;;;;2.78;2.53;;;;;;;;;;5014419;28;20197;-58
2022/04/19 12:16:09;;;;;;;2.78;2.50;;;;;;;;;;5013767;28;20204;-58
2022/04/19 12:18:35;;;;;;;3.40;2.65;;;;;;;;;;5016162;28;20190;-58
2022/04/19 12:21:02;;;;;;;3.60;3.30;;;;;;;;;;5013755;28;20606;-58
2022/04/19 12:23:28;;;;;;;3.47;3.00;;;;;;;;;;5012957;28;20694;-58
2022/04/19 12:26:03;;;;;;;2.90;2.53;;;;;;;;;;5016405;28;20196;-59
2022/04/19 12:28:39;;;;;;;3.47;2.65;;;;;;;;;;5015527;28;20181;-58
2022/04/19 12:31:05;;;;;;;3.50;2.50;;;;;;;;;;5013391;28;20343;-58
2022/04/19 12:33:31;;;;;;;2.72;2.42;;;;;;;;;;5008360;28;20184;-58
2022/04/19 12:35:58;;;;;;;3.55;2.78;;;;;;;;;;5011008;28;20181;-58
2022/04/19 12:38:31;;;;;;;3.85;2.50;;;;;;;;;;5013456;28;20224;-58
2022/04/19 12:40:57;;;;;;;2.97;2.40;;;;;;;;;;5010903;28;20279;-58
2022/04/19 12:43:41;;;;;;;3.20;2.40;;;;;;;;;;5015324;28;20285;-58
2022/04/19 12:46:07;;;;;;;2.60;2.40;;;;;;;;;;5011982;28;20311;-59
2022/04/19 12:48:33;;;;;;;3.03;2.47;;;;;;;;;;5014593;28;20661;-59
2022/04/19 12:51:05;;;;;;;4.00;2.58;;;;;;;;;;5014289;28;20228;-59
2022/04/19 12:53:36;;;;;;;2.75;2.55;;;;;;;;;;5012571;28;20754;-58
2022/04/19 12:56:09;;;;;;;3.35;2.40;;;;;;;;;;5014479;28;20181;-59
2022/04/19 12:58:42;;;;;;;2.75;2.55;;;;;;;;;;5012939;28;20185;-59
2022/04/19 13:01:08;;;;;;;3.00;2.80;;;;;;;;;;5014792;28;20650;-58
2022/04/19 13:03:34;;;;;;;3.92;2.70;;;;;;;;;;5014806;28;20195;-59
2022/04/19 13:14:13;;;;;;;2.72;2.53;;;;;;;;;;5014716;28;20705;-59
2022/04/19 13:16:39;;;;;;;2.53;2.28;;;;;;;;;;5013079;28;20192;-58
2022/04/19 13:19:05;;;;;;;3.38;2.80;;;;;;;;;;5008408;28;20194;-59
2022/04/19 13:21:31;;;;;;;2.85;2.53;;;;;;;;;;5015817;28;20629;-59
2022/04/19 13:23:57;;;;;;;2.80;2.60;;;;;;;;;;5017029;28;20197;-59
2022/04/19 13:26:23;;;;;;;3.03;2.75;;;;;;;;;;5017112;28;20262;-60
2022/04/19 13:28:49;;;;;;;2.67;2.47;;;;;;;;;;5019635;28;20731;-59
2022/04/19 13:31:15;;;;;;;2.35;2.20;;;;;;;;;;5017101;28;20638;-59
2022/04/19 13:33:41;;;;;;;3.67;2.60;;;;;;;;;;5017407;28;20667;-58
2022/04/19 13:36:07;;;;;;;3.00;2.50;;;;;;;;;;5015891;28;20648;-59
2022/04/19 13:38:36;;;;;;;2.53;2.33;;;;;;;;;;5018206;28;20220;-59
2022/04/19 13:41:02;;;;;;;3.38;2.25;;;;;;;;;;5016487;28;20642;-59
2022/04/19 13:43:28;;;;;;;4.30;2.33;;;;;;;;;;5015617;28;20181;-59
2022/04/19 13:45:54;;;;;;;2.38;2.17;;;;;;;;;;5016649;28;20272;-59
2022/04/19 13:48:20;;;;;;;2.50;2.30;;;;;;;;;;5016816;28;20189;-59
2022/04/19 13:50:46;;;;;;;2.67;2.20;;;;;;;;;;5015671;28;20219;-59
2022/04/19 13:53:12;;;;;;;2.83;2.63;;;;;;;;;;5018773;28;20227;-59
2022/04/19 13:55:38;;;;;;;2.75;2.55;;;;;;;;;;5017634;28;20205;-59
2022/04/19 13:58:04;;;;;;;3.13;2.65;;;;;;;;;;5013536;28;20213;-59
2022/04/19 14:00:31;;;;;;;2.50;2.30;;;;;;;;;;5013908;28;20240;-59
2022/04/19 14:02:57;;;;;;;2.35;2.15;;;;;;;;;;5018358;28;20224;-58
2022/04/19 14:05:23;;;;;;;3.97;2.08;;;;;;;;;;5016971;28;20225;-58
2022/04/19 14:07:49;;;;;;;4.07;2.35;;;;;;;;;;5016260;28;20255;-60
2022/04/19 14:10:15;;;;;;;3.72;3.38;;;;;;;;;;5016547;28;20200;-59
2022/04/19 14:12:41;;;;;;;3.80;3.50;;;;;;;;;;5016667;28;20182;-60
2022/04/19 14:15:07;;;;;;;4.68;3.50;;;;;;;;;;5015843;28;20225;-60
2022/04/19 14:17:33;;;;;;;4.07;3.50;;;;;;;;;;5015749;28;20185;-60
2022/04/19 14:19:59;;;;;;;4.75;3.40;;;;;;;;;;5016226;28;20284;-60
2022/04/19 14:22:25;;;;;;;4.50;3.72;;;;;;;;;;5016448;28;20678;-59
2022/04/19 14:24:51;;;;;;;4.43;2.97;;;;;;;;;;5017961;28;20197;-59
2022/04/19 14:27:17;;;;;;;2.78;2.55;;;;;;;;;;5016163;28;20198;-58
2022/04/19 14:35:13;;;;;;;2.97;2.10;;;;;;;;;;5015672;28;20367;-59
2022/04/19 14:37:38;;;;;;;2.47;2.20;;;;;;;;;;5016065;28;20272;-58
2022/04/19 14:40:05;;;;;;;2.45;2.25;;;;;;;;;;5016102;28;20185;-59
2022/04/19 14:42:31;;;;;;;2.03;1.85;;;;;;;;;;5015547;28;20178;-59
2022/04/19 14:44:57;;;;;;;2.35;2.13;;;;;;;;;;5015566;28;20219;-58
2022/04/19 14:47:22;;;;;;;2.20;1.80;;;;;;;;;;5011481;28;20611;-59
2022/04/19 14:49:48;;;;;;;1.85;1.75;;;;;;;;;;5016219;28;20197;-58
2022/04/19 14:52:14;;;;;;;2.53;1.92;;;;;;;;;;5013997;28;20185;-59
2022/04/19 14:54:43;;;;;;;2.35;2.15;;;;;;;;;;5015370;28;20249;-59
2022/04/19 14:57:09;;;;;;;2.30;2.10;;;;;;;;;;5015837;28;20185;-59
2022/04/19 14:59:36;;;;;;;4.47;2.10;;;;;;;;;;5015054;28;20308;-59
2022/04/19 15:02:04;;;;;;;2.10;1.90;;;;;;;;;;5015267;28;20196;-59
2022/04/19 15:04:30;;;;;;;2.30;2.10;;;;;;;;;;5014858;28;20192;-59
2022/04/19 15:06:56;;;;;;;3.35;2.40;;;;;;;;;;5013677;28;20209;-59
2022/04/19 15:09:21;;;;;;;2.47;2.28;;;;;;;;;;5016672;28;20193;-59
2022/04/19 15:11:47;;;;;;;2.40;2.20;;;;;;;;;;5015937;28;20196;-59
2022/04/19 15:14:13;;;;;;;2.75;2.30;;;;;;;;;;5014356;28;20219;-59
2022/04/19 15:16:39;;;;;;;2.40;2.20;;;;;;;;;;5014195;28;20653;-59
2022/04/19 15:19:05;;;;;;;3.08;2.17;;;;;;;;;;5014607;28;20173;-59
2022/04/19 15:21:31;;;;;;;5.30;2.20;;;;;;;;;;5014809;28;20577;-59
2022/04/19 15:23:57;;;;;;;3.00;2.17;;;;;;;;;;5014877;28;20201;-59
2022/04/19 15:26:25;;;;;;;7.63;2.30;;;;;;;;;;5016666;28;20213;-59
2022/04/19 15:28:52;;;;;;;2.20;1.90;;;;;;;;;;5013438;28;20199;-59
2022/04/19 15:31:17;;;;;;;3.08;2.00;;;;;;;;;;5013864;28;20229;-59
2022/04/19 15:33:47;;;;;;;2.15;1.95;;;;;;;;;;5014386;28;20205;-58
2022/04/19 15:36:13;;;;;;;1.75;1.65;;;;;;;;;;5014200;28;20196;-59